createdAt,value
2022-07-31T00:03:56.958Z,86.95
2022-07-31T00:08:56.965Z,89.35
2022-07-31T00:13:58.647Z,90.70
2022-07-31T00:18:56.617Z,91.11
2022-07-31T00:23:56.624Z,91.15
2022-07-31T00:28:56.464Z,92.85
2022-07-31T00:33:56.403Z,93.76
2022-07-31T00:38:56.333Z,94.62
2022-07-31T00:43:56.267Z,95.07
2022-07-31T00:48:56.362Z,94.62
2022-07-31T00:53:56.127Z,95.02
2022-07-31T00:58:56.072Z,94.72
2022-07-31T01:03:56.009Z,95.87
2022-07-31T01:08:55.938Z,95.87
2022-07-31T01:13:55.877Z,95.67
2022-07-31T01:18:55.809Z,94.07
2022-07-31T01:23:55.739Z,95.43
2022-07-31T01:28:55.688Z,93.32
2022-07-31T01:33:55.611Z,93.81
2022-07-31T01:38:55.545Z,94.82
2022-07-31T01:43:55.472Z,96.28
2022-07-31T01:48:55.450Z,96.18
2022-07-31T01:53:55.736Z,97.09
2022-07-31T01:58:55.290Z,96.93
2022-07-31T02:03:56.210Z,97.85
2022-07-31T02:08:55.181Z,98.30
2022-07-31T02:13:55.198Z,96.89
2022-07-31T02:18:55.024Z,96.53
2022-07-31T02:23:54.954Z,97.44
2022-07-31T02:28:54.913Z,98.35
2022-07-31T02:33:54.831Z,97.24
2022-07-31T02:38:54.762Z,96.02
2022-07-31T02:43:54.843Z,98.14
2022-07-31T02:48:54.660Z,98.74
2022-07-31T02:53:54.576Z,99.60
2022-07-31T02:58:54.680Z,99.41
2022-07-31T03:03:54.452Z,97.69
2022-07-31T03:08:54.379Z,97.49
2022-07-31T03:13:54.364Z,97.18
2022-07-31T03:18:54.228Z,96.98
2022-07-31T03:23:54.170Z,96.07
2022-07-31T03:28:54.088Z,96.11
2022-07-31T03:33:54.047Z,97.33
2022-07-31T03:38:53.956Z,98.33
2022-07-31T03:43:53.898Z,99.35
2022-07-31T03:48:53.907Z,99.10
2022-07-31T03:53:53.778Z,98.95
2022-07-31T03:58:53.689Z,97.73
2022-07-31T04:03:53.749Z,95.62
2022-07-31T04:08:53.568Z,93.95
2022-07-31T04:13:53.506Z,92.80
2022-07-31T04:18:53.440Z,92.60
2022-07-31T04:23:53.389Z,93.24
2022-07-31T04:28:53.300Z,93.36
2022-07-31T04:33:56.489Z,89.75
2022-07-31T04:38:53.191Z,81.27
2022-07-31T04:43:53.101Z,73.72
2022-07-31T04:48:53.091Z,68.76
2022-07-31T04:53:52.963Z,66.30
2022-07-31T04:58:53.033Z,63.82
2022-07-31T05:03:52.936Z,62.86
2022-07-31T05:08:52.799Z,59.53
2022-07-31T05:13:52.717Z,56.55
2022-07-31T05:18:52.806Z,54.17
2022-07-31T05:23:52.580Z,52.53
2022-07-31T05:28:57.893Z,51.30
2022-07-31T05:33:53.471Z,50.44
2022-07-31T05:38:52.400Z,49.11
2022-07-31T05:43:52.334Z,47.92
2022-07-31T05:48:52.327Z,50.09
2022-07-31T05:53:52.206Z,50.56
2022-07-31T05:58:52.148Z,51.28
2022-07-31T06:03:52.734Z,50.04
2022-07-31T06:08:52.030Z,48.07
2022-07-31T06:13:51.971Z,48.93
2022-07-31T06:18:51.914Z,47.70
2022-07-31T06:23:51.854Z,48.12
2022-07-31T06:28:51.803Z,50.07
2022-07-31T06:33:52.613Z,51.00
2022-07-31T06:38:51.712Z,49.45
2022-07-31T06:43:51.670Z,49.25
2022-07-31T06:48:51.757Z,51.52
2022-07-31T06:53:51.613Z,52.34
2022-07-31T06:58:51.499Z,51.50
2022-07-31T07:03:51.413Z,51.52
2022-07-31T07:08:51.518Z,50.66
2022-07-31T07:13:51.356Z,54.17
2022-07-31T07:18:51.635Z,52.83
2022-07-31T07:23:51.276Z,54.07
2022-07-31T07:28:51.097Z,51.77
2022-07-31T07:33:51.090Z,53.13
2022-07-31T07:38:52.125Z,53.82
2022-07-31T07:43:51.789Z,55.09
2022-07-31T07:48:51.123Z,55.78
2022-07-31T07:53:50.897Z,54.77
2022-07-31T07:58:50.745Z,53.92
2022-07-31T08:03:52.218Z,56.51
2022-07-31T08:08:50.649Z,54.86
2022-07-31T08:13:51.360Z,54.35
2022-07-31T08:18:50.532Z,54.44
2022-07-31T08:23:50.736Z,54.35
2022-07-31T08:28:51.281Z,54.14
2022-07-31T08:33:50.327Z,54.84
2022-07-31T08:38:50.349Z,54.77
2022-07-31T08:44:02.990Z,55.41
2022-07-31T08:48:51.281Z,55.41
2022-07-31T08:53:50.276Z,56.66
2022-07-31T08:58:50.149Z,56.43
2022-07-31T09:03:49.922Z,56.34
2022-07-31T09:08:49.874Z,56.01
2022-07-31T09:13:52.455Z,56.23
2022-07-31T09:18:50.799Z,56.66
2022-07-31T09:23:49.704Z,55.24
2022-07-31T09:28:49.667Z,54.55
2022-07-31T09:33:49.588Z,55.21
2022-07-31T09:38:49.504Z,54.85
2022-07-31T09:43:52.048Z,56.06
2022-07-31T09:48:49.423Z,55.24
2022-07-31T09:53:49.386Z,53.80
2022-07-31T09:58:49.262Z,53.70
2022-07-31T10:03:49.170Z,53.01
2022-07-31T10:08:49.115Z,51.89
2022-07-31T10:13:49.029Z,53.13
2022-07-31T10:18:48.996Z,52.88
2022-07-31T10:23:48.993Z,53.85
2022-07-31T10:28:48.862Z,54.55
2022-07-31T10:33:48.874Z,52.88
2022-07-31T10:38:48.816Z,50.83
2022-07-31T10:43:48.641Z,50.41
2022-07-31T10:48:48.656Z,49.54
2022-07-31T10:53:51.490Z,50.61
2022-07-31T10:58:49.466Z,50.41
2022-07-31T11:03:48.957Z,49.91
2022-07-31T11:08:48.392Z,52.49
2022-07-31T11:13:48.268Z,51.54
2022-07-31T11:18:48.209Z,50.76
2022-07-31T11:23:56.424Z,50.21
2022-07-31T11:28:49.121Z,49.69
2022-07-31T11:33:48.024Z,50.51
2022-07-31T11:38:48.032Z,49.99
2022-07-31T11:43:47.913Z,49.89
2022-07-31T11:48:47.863Z,49.67
2022-07-31T11:53:57.007Z,49.57
2022-07-31T11:58:49.581Z,49.54
2022-07-31T12:03:47.664Z,50.68
2022-07-31T12:08:47.609Z,50.26
2022-07-31T12:13:47.512Z,49.96
2022-07-31T12:18:47.494Z,48.58
2022-07-31T12:23:47.427Z,49.07
2022-07-31T12:28:47.376Z,48.95
2022-07-31T12:33:47.251Z,46.14
2022-07-31T12:38:48.938Z,48.68
2022-07-31T12:43:52.471Z,45.29
2022-07-31T12:48:48.179Z,45.96
2022-07-31T12:53:47.055Z,46.75
2022-07-31T12:58:46.981Z,46.11
2022-07-31T13:03:46.883Z,45.07
2022-07-31T13:08:46.869Z,43.96
2022-07-31T13:13:46.753Z,43.84
2022-07-31T13:18:46.813Z,44.46
2022-07-31T13:23:47.049Z,44.26
2022-07-31T13:28:46.571Z,45.35
2022-07-31T13:33:46.595Z,45.64
2022-07-31T13:38:46.404Z,43.79
2022-07-31T13:44:00.271Z,44.20
2022-07-31T13:48:47.331Z,46.06
2022-07-31T13:53:46.211Z,45.98
2022-07-31T13:58:46.150Z,45.96
2022-07-31T14:03:46.090Z,46.06
2022-07-31T14:08:50.202Z,45.17
2022-07-31T14:13:46.074Z,45.57
2022-07-31T14:18:45.894Z,45.45
2022-07-31T14:23:45.835Z,43.57
2022-07-31T14:28:45.829Z,45.05
2022-07-31T14:33:45.717Z,44.28
2022-07-31T14:38:45.644Z,44.48
2022-07-31T14:43:45.579Z,42.97
2022-07-31T14:48:45.566Z,44.58
2022-07-31T14:53:45.461Z,43.77
2022-07-31T14:58:58.050Z,44.16
2022-07-31T15:03:46.303Z,42.97
2022-07-31T15:08:45.274Z,43.17
2022-07-31T15:13:45.204Z,42.38
2022-07-31T15:18:48.784Z,41.20
2022-07-31T15:23:46.055Z,42.48
2022-07-31T15:28:44.987Z,42.29
2022-07-31T15:33:44.907Z,42.48
2022-07-31T15:38:44.858Z,42.11
2022-07-31T15:43:44.785Z,42.43
2022-07-31T15:48:44.731Z,43.10
2022-07-31T15:53:44.822Z,42.11
2022-07-31T15:58:44.640Z,42.30
2022-07-31T16:03:53.012Z,43.10
2022-07-31T16:08:45.595Z,44.09
2022-07-31T16:13:44.427Z,42.97
2022-07-31T16:18:44.901Z,44.26
2022-07-31T16:23:44.317Z,43.98
2022-07-31T16:28:44.207Z,43.39
2022-07-31T16:33:44.162Z,44.50
2022-07-31T16:38:59.453Z,44.10
2022-07-31T16:43:50.348Z,43.53
2022-07-31T16:48:44.970Z,44.92
2022-07-31T16:54:14.178Z,44.52
2022-07-31T16:58:45.095Z,45.01
2022-07-31T17:04:01.526Z,45.43
2022-07-31T17:08:44.717Z,46.23
2022-07-31T17:13:43.730Z,44.94
2022-07-31T17:18:43.640Z,45.73
2022-07-31T17:23:51.004Z,44.86
2022-07-31T17:28:44.477Z,46.45
2022-07-31T17:33:59.408Z,45.56
2022-07-31T17:38:44.311Z,47.46
2022-07-31T17:43:50.396Z,44.98
2022-07-31T17:48:44.212Z,46.77
2022-07-31T17:53:43.365Z,47.36
2022-07-31T17:58:44.063Z,45.38
2022-07-31T18:03:43.164Z,45.18
2022-07-31T18:08:43.026Z,46.49
2022-07-31T18:13:48.316Z,47.28
2022-07-31T18:18:43.828Z,47.58
2022-07-31T18:23:47.348Z,46.49
2022-07-31T18:28:43.687Z,46.69
2022-07-31T18:33:42.658Z,47.28
2022-07-31T18:38:42.532Z,47.58
2022-07-31T18:43:42.504Z,46.89
2022-07-31T18:48:42.397Z,47.50
2022-07-31T18:53:42.357Z,47.11
2022-07-31T18:58:42.307Z,48.40
2022-07-31T19:03:42.215Z,48.40
2022-07-31T19:08:42.229Z,48.20
2022-07-31T19:13:42.135Z,48.80
2022-07-31T19:18:42.015Z,48.22
2022-07-31T19:23:41.946Z,48.65
2022-07-31T19:28:41.911Z,49.54
2022-07-31T19:33:41.858Z,49.04
2022-07-31T19:38:41.776Z,49.04
2022-07-31T19:43:41.699Z,50.43
2022-07-31T19:48:41.632Z,49.24
2022-07-31T19:53:41.574Z,50.73
2022-07-31T19:58:41.514Z,49.11
2022-07-31T20:03:41.554Z,49.84
2022-07-31T20:08:41.385Z,50.33
2022-07-31T20:13:41.435Z,50.35
2022-07-31T20:18:41.276Z,51.25
2022-07-31T20:23:41.184Z,50.85
2022-07-31T20:28:41.107Z,51.45
2022-07-31T20:33:41.039Z,52.04
2022-07-31T20:38:40.990Z,52.24
2022-07-31T20:43:40.903Z,52.44
2022-07-31T20:48:40.829Z,52.54
2022-07-31T20:53:40.772Z,53.16
2022-07-31T20:58:40.732Z,53.66
2022-07-31T21:03:40.651Z,54.18
2022-07-31T21:08:40.577Z,54.71
2022-07-31T21:13:40.525Z,54.71
2022-07-31T21:18:43.388Z,54.48
2022-07-31T21:23:40.376Z,54.58
2022-07-31T21:28:40.324Z,55.00
2022-07-31T21:33:40.256Z,55.30
2022-07-31T21:38:40.167Z,54.88
2022-07-31T21:43:58.276Z,55.18
2022-07-31T21:48:41.041Z,55.47
2022-07-31T21:53:39.979Z,54.97
2022-07-31T21:58:39.902Z,55.57
2022-07-31T22:03:39.830Z,56.40
2022-07-31T22:08:39.764Z,56.30
2022-07-31T22:13:39.695Z,57.19
2022-07-31T22:18:39.631Z,58.09
2022-07-31T22:23:39.745Z,57.99
2022-07-31T22:28:39.506Z,57.69
2022-07-31T22:33:39.435Z,57.69
2022-07-31T22:38:39.370Z,57.29
2022-07-31T22:44:10.879Z,57.19
2022-07-31T22:48:40.230Z,57.79
2022-07-31T22:53:39.159Z,58.01
2022-07-31T22:58:39.101Z,57.39
2022-07-31T23:03:39.041Z,57.92
2022-07-31T23:08:38.970Z,58.94
2022-07-31T23:13:38.932Z,58.41
2022-07-31T23:18:38.885Z,57.19
2022-07-31T23:23:38.804Z,57.19
2022-07-31T23:28:38.892Z,58.31
2022-07-31T23:33:38.636Z,59.27
2022-07-31T23:38:38.566Z,59.14
2022-07-31T23:43:38.505Z,58.31
2022-07-31T23:48:39.499Z,58.31
2022-07-31T23:53:38.381Z,58.51
2022-07-31T23:58:38.309Z,59.04
